sensor_id;sensor_type;location;lat;lon;timestamp;temperature;humidity
48043;DHT22;33988;47.992;8.820;2023-08-07T00:02:20;18.70;54.30
48043;DHT22;33988;47.992;8.820;2023-08-07T00:04:47;18.60;54.30
48043;DHT22;33988;47.992;8.820;2023-08-07T00:07:17;18.60;54.40
48043;DHT22;33988;47.992;8.820;2023-08-07T00:09:44;18.60;54.50
48043;DHT22;33988;47.992;8.820;2023-08-07T00:12:11;18.60;54.60
48043;DHT22;33988;47.992;8.820;2023-08-07T00:14:40;18.60;54.60
48043;DHT22;33988;47.992;8.820;2023-08-07T00:17:12;18.60;54.70
48043;DHT22;33988;47.992;8.820;2023-08-07T00:19:39;18.50;54.70
48043;DHT22;33988;47.992;8.820;2023-08-07T00:22:05;18.60;54.70
48043;DHT22;33988;47.992;8.820;2023-08-07T00:24:32;18.50;54.70
48043;DHT22;33988;47.992;8.820;2023-08-07T00:26:59;18.50;54.70
48043;DHT22;33988;47.992;8.820;2023-08-07T00:29:26;18.50;54.80
48043;DHT22;33988;47.992;8.820;2023-08-07T00:31:53;18.50;54.90
48043;DHT22;33988;47.992;8.820;2023-08-07T00:34:20;18.50;54.90
48043;DHT22;33988;47.992;8.820;2023-08-07T00:36:49;18.50;54.90
48043;DHT22;33988;47.992;8.820;2023-08-07T00:39:18;18.50;54.90
48043;DHT22;33988;47.992;8.820;2023-08-07T00:41:45;18.50;54.90
48043;DHT22;33988;47.992;8.820;2023-08-07T00:44:12;18.50;54.90
48043;DHT22;33988;47.992;8.820;2023-08-07T00:46:40;18.60;55.10
48043;DHT22;33988;47.992;8.820;2023-08-07T00:49:08;18.60;55.10
48043;DHT22;33988;47.992;8.820;2023-08-07T00:51:37;18.60;55.10
48043;DHT22;33988;47.992;8.820;2023-08-07T00:54:05;18.60;55.10
48043;DHT22;33988;47.992;8.820;2023-08-07T00:56:34;18.60;55.20
48043;DHT22;33988;47.992;8.820;2023-08-07T00:59:04;18.60;55.20
48043;DHT22;33988;47.992;8.820;2023-08-07T01:01:33;18.60;55.10
48043;DHT22;33988;47.992;8.820;2023-08-07T01:04:02;18.50;55.10
48043;DHT22;33988;47.992;8.820;2023-08-07T01:06:29;18.60;55.10
48043;DHT22;33988;47.992;8.820;2023-08-07T01:08:57;18.60;55.10
48043;DHT22;33988;47.992;8.820;2023-08-07T01:11:39;18.50;55.00
48043;DHT22;33988;47.992;8.820;2023-08-07T01:17:21;18.50;55.10
48043;DHT22;33988;47.992;8.820;2023-08-07T01:19:51;18.50;55.10
48043;DHT22;33988;47.992;8.820;2023-08-07T01:22:19;18.50;55.10
48043;DHT22;33988;47.992;8.820;2023-08-07T01:24:48;18.50;55.00
48043;DHT22;33988;47.992;8.820;2023-08-07T01:30:01;18.30;55.10
48043;DHT22;33988;47.992;8.820;2023-08-07T01:35:16;18.50;54.90
48043;DHT22;33988;47.992;8.820;2023-08-07T01:37:47;18.50;54.90
48043;DHT22;33988;47.992;8.820;2023-08-07T01:40:15;18.50;54.80
48043;DHT22;33988;47.992;8.820;2023-08-07T01:42:43;18.40;54.70
48043;DHT22;33988;47.992;8.820;2023-08-07T01:45:13;18.40;54.70
48043;DHT22;33988;47.992;8.820;2023-08-07T01:47:42;18.40;54.80
48043;DHT22;33988;47.992;8.820;2023-08-07T01:50:10;18.40;54.80
48043;DHT22;33988;47.992;8.820;2023-08-07T01:52:36;18.40;54.70
48043;DHT22;33988;47.992;8.820;2023-08-07T01:55:04;18.40;54.70
48043;DHT22;33988;47.992;8.820;2023-08-07T01:57:31;18.40;54.60
48043;DHT22;33988;47.992;8.820;2023-08-07T01:59:58;18.40;54.60
48043;DHT22;33988;47.992;8.820;2023-08-07T02:02:25;18.40;54.60
48043;DHT22;33988;47.992;8.820;2023-08-07T02:04:55;18.40;54.60
48043;DHT22;33988;47.992;8.820;2023-08-07T02:07:24;18.40;54.60
48043;DHT22;33988;47.992;8.820;2023-08-07T02:09:51;18.40;54.60
48043;DHT22;33988;47.992;8.820;2023-08-07T02:12:20;18.30;54.60
48043;DHT22;33988;47.992;8.820;2023-08-07T02:14:47;18.30;54.60
48043;DHT22;33988;47.992;8.820;2023-08-07T02:17:14;18.30;54.60
48043;DHT22;33988;47.992;8.820;2023-08-07T02:19:43;18.30;54.50
48043;DHT22;33988;47.992;8.820;2023-08-07T02:22:10;18.30;54.50
48043;DHT22;33988;47.992;8.820;2023-08-07T02:24:39;18.30;54.60
48043;DHT22;33988;47.992;8.820;2023-08-07T02:27:09;18.20;54.60
48043;DHT22;33988;47.992;8.820;2023-08-07T02:29:38;18.30;54.60
48043;DHT22;33988;47.992;8.820;2023-08-07T02:32:05;18.20;54.60
48043;DHT22;33988;47.992;8.820;2023-08-07T02:34:35;18.20;55.30
48043;DHT22;33988;47.992;8.820;2023-08-07T02:37:02;18.20;54.70
48043;DHT22;33988;47.992;8.820;2023-08-07T02:39:29;18.20;54.70
48043;DHT22;33988;47.992;8.820;2023-08-07T02:41:56;18.10;54.60
48043;DHT22;33988;47.992;8.820;2023-08-07T02:44:23;18.10;54.60
48043;DHT22;33988;47.992;8.820;2023-08-07T02:46:50;18.10;54.60
48043;DHT22;33988;47.992;8.820;2023-08-07T02:49:20;18.10;54.60
48043;DHT22;33988;47.992;8.820;2023-08-07T02:51:49;18.10;54.60
48043;DHT22;33988;47.992;8.820;2023-08-07T02:54:16;18.10;54.60
48043;DHT22;33988;47.992;8.820;2023-08-07T02:56:50;18.10;54.60
48043;DHT22;33988;47.992;8.820;2023-08-07T02:59:17;18.10;54.60
48043;DHT22;33988;47.992;8.820;2023-08-07T03:01:44;18.10;55.20
48043;DHT22;33988;47.992;8.820;2023-08-07T03:04:13;18.10;54.50
48043;DHT22;33988;47.992;8.820;2023-08-07T03:06:42;18.10;54.50
48043;DHT22;33988;47.992;8.820;2023-08-07T03:09:12;18.00;54.50
48043;DHT22;33988;47.992;8.820;2023-08-07T03:11:39;18.00;54.50
48043;DHT22;33988;47.992;8.820;2023-08-07T03:14:06;18.00;54.50
48043;DHT22;33988;47.992;8.820;2023-08-07T03:16:35;18.00;54.50
48043;DHT22;33988;47.992;8.820;2023-08-07T03:19:02;18.00;54.40
48043;DHT22;33988;47.992;8.820;2023-08-07T03:21:29;18.00;54.40
48043;DHT22;33988;47.992;8.820;2023-08-07T03:23:58;17.90;54.40
48043;DHT22;33988;47.992;8.820;2023-08-07T03:26:25;17.90;54.40
48043;DHT22;33988;47.992;8.820;2023-08-07T03:28:52;17.90;54.40
48043;DHT22;33988;47.992;8.820;2023-08-07T03:31:19;17.90;54.40
48043;DHT22;33988;47.992;8.820;2023-08-07T03:33:48;17.90;54.40
48043;DHT22;33988;47.992;8.820;2023-08-07T03:36:15;17.90;54.40
48043;DHT22;33988;47.992;8.820;2023-08-07T03:38:45;17.90;54.40
48043;DHT22;33988;47.992;8.820;2023-08-07T03:41:12;17.90;54.40
48043;DHT22;33988;47.992;8.820;2023-08-07T03:43:41;17.80;54.40
48043;DHT22;33988;47.992;8.820;2023-08-07T03:46:08;17.80;54.40
48043;DHT22;33988;47.992;8.820;2023-08-07T03:48:37;17.80;54.40
48043;DHT22;33988;47.992;8.820;2023-08-07T03:51:07;17.80;54.40
48043;DHT22;33988;47.992;8.820;2023-08-07T03:53:41;17.50;54.50
48043;DHT22;33988;47.992;8.820;2023-08-07T03:56:08;17.70;54.40
48043;DHT22;33988;47.992;8.820;2023-08-07T03:58:35;17.70;54.40
48043;DHT22;33988;47.992;8.820;2023-08-07T04:01:02;17.70;54.50
48043;DHT22;33988;47.992;8.820;2023-08-07T04:03:32;17.70;54.50
48043;DHT22;33988;47.992;8.820;2023-08-07T04:06:02;17.70;54.50
48043;DHT22;33988;47.992;8.820;2023-08-07T04:08:29;17.70;54.60
48043;DHT22;33988;47.992;8.820;2023-08-07T04:11:02;17.60;54.60
48043;DHT22;33988;47.992;8.820;2023-08-07T04:13:35;17.60;54.60
48043;DHT22;33988;47.992;8.820;2023-08-07T04:16:05;17.60;54.60
48043;DHT22;33988;47.992;8.820;2023-08-07T04:18:33;17.60;54.60
48043;DHT22;33988;47.992;8.820;2023-08-07T04:21:00;17.60;54.70
48043;DHT22;33988;47.992;8.820;2023-08-07T04:23:29;17.60;54.70
48043;DHT22;33988;47.992;8.820;2023-08-07T04:25:58;17.60;54.70
48043;DHT22;33988;47.992;8.820;2023-08-07T04:28:29;17.60;54.70
48043;DHT22;33988;47.992;8.820;2023-08-07T04:30:56;17.60;54.70
48043;DHT22;33988;47.992;8.820;2023-08-07T04:33:22;17.50;54.70
48043;DHT22;33988;47.992;8.820;2023-08-07T04:35:49;17.50;54.80
48043;DHT22;33988;47.992;8.820;2023-08-07T04:38:17;17.50;54.80
48043;DHT22;33988;47.992;8.820;2023-08-07T04:40:48;17.50;54.90
48043;DHT22;33988;47.992;8.820;2023-08-07T04:43:17;17.50;55.00
48043;DHT22;33988;47.992;8.820;2023-08-07T04:45:47;17.40;55.00
48043;DHT22;33988;47.992;8.820;2023-08-07T04:48:15;17.20;55.10
48043;DHT22;33988;47.992;8.820;2023-08-07T04:50:42;17.40;55.10
48043;DHT22;33988;47.992;8.820;2023-08-07T04:53:11;17.40;55.10
48043;DHT22;33988;47.992;8.820;2023-08-07T04:55:39;17.40;55.10
48043;DHT22;33988;47.992;8.820;2023-08-07T04:58:06;17.40;55.10
48043;DHT22;33988;47.992;8.820;2023-08-07T05:00:35;17.40;55.10
48043;DHT22;33988;47.992;8.820;2023-08-07T05:03:04;17.40;55.00
48043;DHT22;33988;47.992;8.820;2023-08-07T05:05:32;17.40;55.10
48043;DHT22;33988;47.992;8.820;2023-08-07T05:08:03;17.40;55.20
48043;DHT22;33988;47.992;8.820;2023-08-07T05:10:33;17.40;55.80
48043;DHT22;33988;47.992;8.820;2023-08-07T05:13:00;17.40;55.20
48043;DHT22;33988;47.992;8.820;2023-08-07T05:15:27;17.40;55.20
48043;DHT22;33988;47.992;8.820;2023-08-07T05:17:55;17.40;55.20
48043;DHT22;33988;47.992;8.820;2023-08-07T05:20:22;17.40;55.80
48043;DHT22;33988;47.992;8.820;2023-08-07T05:22:49;17.50;55.20
48043;DHT22;33988;47.992;8.820;2023-08-07T05:25:16;17.50;55.30
48043;DHT22;33988;47.992;8.820;2023-08-07T05:27:47;17.50;55.30
48043;DHT22;33988;47.992;8.820;2023-08-07T05:30:14;17.50;55.40
48043;DHT22;33988;47.992;8.820;2023-08-07T05:32:41;17.60;55.40
48043;DHT22;33988;47.992;8.820;2023-08-07T05:35:09;17.60;55.50
48043;DHT22;33988;47.992;8.820;2023-08-07T05:37:38;17.70;55.50
48043;DHT22;33988;47.992;8.820;2023-08-07T05:40:09;17.70;55.40
48043;DHT22;33988;47.992;8.820;2023-08-07T05:42:38;17.80;55.40
48043;DHT22;33988;47.992;8.820;2023-08-07T05:45:09;17.80;55.40
48043;DHT22;33988;47.992;8.820;2023-08-07T05:47:37;17.90;55.50
48043;DHT22;33988;47.992;8.820;2023-08-07T05:50:04;17.90;55.40
48043;DHT22;33988;47.992;8.820;2023-08-07T05:52:32;18.00;55.40
48043;DHT22;33988;47.992;8.820;2023-08-07T05:54:59;18.00;55.40
48043;DHT22;33988;47.992;8.820;2023-08-07T05:57:33;18.00;55.40
48043;DHT22;33988;47.992;8.820;2023-08-07T06:00:00;18.10;55.50
48043;DHT22;33988;47.992;8.820;2023-08-07T06:02:32;18.10;55.40
48043;DHT22;33988;47.992;8.820;2023-08-07T06:04:59;18.20;55.30
48043;DHT22;33988;47.992;8.820;2023-08-07T06:07:26;18.20;55.20
48043;DHT22;33988;47.992;8.820;2023-08-07T06:09:55;18.20;55.20
48043;DHT22;33988;47.992;8.820;2023-08-07T06:12:22;18.30;55.20
48043;DHT22;33988;47.992;8.820;2023-08-07T06:14:52;18.30;55.10
48043;DHT22;33988;47.992;8.820;2023-08-07T06:17:19;18.30;55.10
48043;DHT22;33988;47.992;8.820;2023-08-07T06:19:46;18.40;55.20
48043;DHT22;33988;47.992;8.820;2023-08-07T06:22:13;18.40;55.20
48043;DHT22;33988;47.992;8.820;2023-08-07T06:24:39;18.50;55.20
48043;DHT22;33988;47.992;8.820;2023-08-07T06:27:06;18.50;55.10
48043;DHT22;33988;47.992;8.820;2023-08-07T06:29:33;18.50;54.90
48043;DHT22;33988;47.992;8.820;2023-08-07T06:32:05;18.50;54.80
48043;DHT22;33988;47.992;8.820;2023-08-07T06:34:32;18.60;55.00
48043;DHT22;33988;47.992;8.820;2023-08-07T06:37:01;18.60;55.10
48043;DHT22;33988;47.992;8.820;2023-08-07T06:39:31;18.70;55.10
48043;DHT22;33988;47.992;8.820;2023-08-07T06:41:58;18.70;55.00
48043;DHT22;33988;47.992;8.820;2023-08-07T06:44:26;18.80;55.00
48043;DHT22;33988;47.992;8.820;2023-08-07T06:46:55;18.80;54.90
48043;DHT22;33988;47.992;8.820;2023-08-07T06:49:25;18.80;54.90
48043;DHT22;33988;47.992;8.820;2023-08-07T06:51:52;18.80;55.10
48043;DHT22;33988;47.992;8.820;2023-08-07T06:54:22;18.90;55.30
48043;DHT22;33988;47.992;8.820;2023-08-07T06:56:48;18.90;55.30
48043;DHT22;33988;47.992;8.820;2023-08-07T06:59:15;19.00;55.20
48043;DHT22;33988;47.992;8.820;2023-08-07T07:01:42;19.00;55.10
48043;DHT22;33988;47.992;8.820;2023-08-07T07:04:12;19.10;55.20
48043;DHT22;33988;47.992;8.820;2023-08-07T07:06:39;19.10;55.20
48043;DHT22;33988;47.992;8.820;2023-08-07T07:09:09;19.20;55.20
48043;DHT22;33988;47.992;8.820;2023-08-07T07:11:36;19.20;55.30
48043;DHT22;33988;47.992;8.820;2023-08-07T07:14:05;19.20;55.40
48043;DHT22;33988;47.992;8.820;2023-08-07T07:16:32;19.30;55.50
48043;DHT22;33988;47.992;8.820;2023-08-07T07:18:59;19.40;55.70
48043;DHT22;33988;47.992;8.820;2023-08-07T07:21:29;19.40;55.80
48043;DHT22;33988;47.992;8.820;2023-08-07T07:23:58;19.50;55.80
48043;DHT22;33988;47.992;8.820;2023-08-07T07:26:25;19.40;55.80
48043;DHT22;33988;47.992;8.820;2023-08-07T07:28:54;19.60;55.60
48043;DHT22;33988;47.992;8.820;2023-08-07T07:31:21;19.70;55.50
48043;DHT22;33988;47.992;8.820;2023-08-07T07:33:48;19.80;55.40
48043;DHT22;33988;47.992;8.820;2023-08-07T07:36:19;19.90;55.60
48043;DHT22;33988;47.992;8.820;2023-08-07T07:38:46;19.90;55.60
48043;DHT22;33988;47.992;8.820;2023-08-07T07:41:14;19.90;55.40
48043;DHT22;33988;47.992;8.820;2023-08-07T07:43:44;20.00;55.30
48043;DHT22;33988;47.992;8.820;2023-08-07T07:46:13;20.00;55.30
48043;DHT22;33988;47.992;8.820;2023-08-07T07:48:40;20.10;55.20
48043;DHT22;33988;47.992;8.820;2023-08-07T07:51:09;20.20;55.30
48043;DHT22;33988;47.992;8.820;2023-08-07T07:53:36;20.20;55.40
48043;DHT22;33988;47.992;8.820;2023-08-07T07:56:03;20.30;55.40
48043;DHT22;33988;47.992;8.820;2023-08-07T07:58:30;20.40;55.10
48043;DHT22;33988;47.992;8.820;2023-08-07T08:01:00;20.50;54.90
48043;DHT22;33988;47.992;8.820;2023-08-07T08:03:27;20.50;55.00
48043;DHT22;33988;47.992;8.820;2023-08-07T08:05:57;20.60;55.10
48043;DHT22;33988;47.992;8.820;2023-08-07T08:08:26;20.70;55.00
48043;DHT22;33988;47.992;8.820;2023-08-07T08:10:55;20.80;54.80
48043;DHT22;33988;47.992;8.820;2023-08-07T08:13:22;20.90;54.70
48043;DHT22;33988;47.992;8.820;2023-08-07T08:15:52;20.90;54.60
48043;DHT22;33988;47.992;8.820;2023-08-07T08:18:19;21.00;54.30
48043;DHT22;33988;47.992;8.820;2023-08-07T08:20:50;21.00;54.30
48043;DHT22;33988;47.992;8.820;2023-08-07T08:23:20;21.10;54.50
48043;DHT22;33988;47.992;8.820;2023-08-07T08:25:48;21.10;54.30
48043;DHT22;33988;47.992;8.820;2023-08-07T08:28:17;21.20;54.10
48043;DHT22;33988;47.992;8.820;2023-08-07T08:30:45;21.20;54.00
48043;DHT22;33988;47.992;8.820;2023-08-07T08:33:12;21.30;53.80
48043;DHT22;33988;47.992;8.820;2023-08-07T08:35:41;21.30;53.60
48043;DHT22;33988;47.992;8.820;2023-08-07T08:38:09;21.30;53.60
48043;DHT22;33988;47.992;8.820;2023-08-07T08:40:38;21.40;53.80
48043;DHT22;33988;47.992;8.820;2023-08-07T08:43:06;21.40;53.90
48043;DHT22;33988;47.992;8.820;2023-08-07T08:45:33;21.50;53.80
48043;DHT22;33988;47.992;8.820;2023-08-07T08:48:03;21.50;53.80
48043;DHT22;33988;47.992;8.820;2023-08-07T08:50:32;21.60;53.80
48043;DHT22;33988;47.992;8.820;2023-08-07T08:53:00;21.70;53.60
48043;DHT22;33988;47.992;8.820;2023-08-07T08:55:33;21.70;53.10
48043;DHT22;33988;47.992;8.820;2023-08-07T08:58:03;21.80;52.80
48043;DHT22;33988;47.992;8.820;2023-08-07T09:00:30;21.80;52.50
48043;DHT22;33988;47.992;8.820;2023-08-07T09:02:58;21.80;52.30
48043;DHT22;33988;47.992;8.820;2023-08-07T09:05:25;21.80;52.10
48043;DHT22;33988;47.992;8.820;2023-08-07T09:08:00;21.90;51.90
48043;DHT22;33988;47.992;8.820;2023-08-07T09:10:27;21.90;52.30
48043;DHT22;33988;47.992;8.820;2023-08-07T09:13:02;21.90;52.30
48043;DHT22;33988;47.992;8.820;2023-08-07T09:15:36;21.90;52.20
48043;DHT22;33988;47.992;8.820;2023-08-07T09:18:05;22.00;52.00
48043;DHT22;33988;47.992;8.820;2023-08-07T09:20:37;22.00;51.80
48043;DHT22;33988;47.992;8.820;2023-08-07T09:23:07;22.10;51.80
48043;DHT22;33988;47.992;8.820;2023-08-07T09:25:34;22.10;51.60
48043;DHT22;33988;47.992;8.820;2023-08-07T09:28:03;22.10;51.30
48043;DHT22;33988;47.992;8.820;2023-08-07T09:30:35;22.10;51.10
48043;DHT22;33988;47.992;8.820;2023-08-07T09:33:06;22.10;50.80
48043;DHT22;33988;47.992;8.820;2023-08-07T09:35:33;22.10;50.70
48043;DHT22;33988;47.992;8.820;2023-08-07T09:38:05;22.10;51.30
48043;DHT22;33988;47.992;8.820;2023-08-07T09:40:38;22.10;50.30
48043;DHT22;33988;47.992;8.820;2023-08-07T09:43:06;22.10;50.50
48043;DHT22;33988;47.992;8.820;2023-08-07T09:45:40;22.20;50.50
48043;DHT22;33988;47.992;8.820;2023-08-07T09:48:07;22.20;50.40
48043;DHT22;33988;47.992;8.820;2023-08-07T09:50:38;22.20;50.20
48043;DHT22;33988;47.992;8.820;2023-08-07T09:53:05;22.20;50.10
48043;DHT22;33988;47.992;8.820;2023-08-07T09:55:32;22.20;50.10
48043;DHT22;33988;47.992;8.820;2023-08-07T09:58:03;22.10;50.00
48043;DHT22;33988;47.992;8.820;2023-08-07T10:00:36;22.10;50.00
48043;DHT22;33988;47.992;8.820;2023-08-07T10:03:04;22.10;50.00
48043;DHT22;33988;47.992;8.820;2023-08-07T10:05:34;22.10;50.00
48043;DHT22;33988;47.992;8.820;2023-08-07T10:08:02;22.10;49.90
48043;DHT22;33988;47.992;8.820;2023-08-07T10:10:32;22.00;49.80
48043;DHT22;33988;47.992;8.820;2023-08-07T10:13:01;22.00;49.90
48043;DHT22;33988;47.992;8.820;2023-08-07T10:15:30;22.00;50.00
48043;DHT22;33988;47.992;8.820;2023-08-07T10:18:01;22.00;49.90
48043;DHT22;33988;47.992;8.820;2023-08-07T10:20:29;21.90;49.60
48043;DHT22;33988;47.992;8.820;2023-08-07T10:23:01;21.90;49.40
48043;DHT22;33988;47.992;8.820;2023-08-07T10:25:35;21.90;49.40
48043;DHT22;33988;47.992;8.820;2023-08-07T10:28:09;21.90;49.40
48043;DHT22;33988;47.992;8.820;2023-08-07T10:30:38;21.90;49.40
48043;DHT22;33988;47.992;8.820;2023-08-07T10:33:08;21.90;49.80
48043;DHT22;33988;47.992;8.820;2023-08-07T10:35:36;21.90;50.00
48043;DHT22;33988;47.992;8.820;2023-08-07T10:38:10;21.90;50.20
48043;DHT22;33988;47.992;8.820;2023-08-07T10:43:27;21.90;49.60
48043;DHT22;33988;47.992;8.820;2023-08-07T10:46:19;22.00;49.80
48043;DHT22;33988;47.992;8.820;2023-08-07T10:48:57;22.00;49.70
48043;DHT22;33988;47.992;8.820;2023-08-07T10:51:29;22.00;49.40
48043;DHT22;33988;47.992;8.820;2023-08-07T10:54:01;22.00;49.40
48043;DHT22;33988;47.992;8.820;2023-08-07T10:56:34;22.00;49.40
48043;DHT22;33988;47.992;8.820;2023-08-07T10:59:11;22.00;49.50
48043;DHT22;33988;47.992;8.820;2023-08-07T11:04:13;22.00;49.40
48043;DHT22;33988;47.992;8.820;2023-08-07T11:06:43;22.00;49.40
48043;DHT22;33988;47.992;8.820;2023-08-07T11:09:13;22.00;49.30
48043;DHT22;33988;47.992;8.820;2023-08-07T11:14:18;22.00;49.00
48043;DHT22;33988;47.992;8.820;2023-08-07T11:16:47;22.00;48.80
48043;DHT22;33988;47.992;8.820;2023-08-07T11:19:16;22.00;48.70
48043;DHT22;33988;47.992;8.820;2023-08-07T11:21:45;22.00;48.60
48043;DHT22;33988;47.992;8.820;2023-08-07T11:24:13;22.00;48.70
48043;DHT22;33988;47.992;8.820;2023-08-07T11:26:43;22.00;48.90
48043;DHT22;33988;47.992;8.820;2023-08-07T11:29:19;22.00;49.00
48043;DHT22;33988;47.992;8.820;2023-08-07T11:31:46;21.90;49.40
48043;DHT22;33988;47.992;8.820;2023-08-07T11:34:13;21.90;49.60
48043;DHT22;33988;47.992;8.820;2023-08-07T11:36:43;21.90;49.50
48043;DHT22;33988;47.992;8.820;2023-08-07T11:39:12;21.90;49.90
48043;DHT22;33988;47.992;8.820;2023-08-07T11:41:43;22.00;50.30
48043;DHT22;33988;47.992;8.820;2023-08-07T11:44:13;22.00;50.30
48043;DHT22;33988;47.992;8.820;2023-08-07T11:46:40;22.10;50.60
48043;DHT22;33988;47.992;8.820;2023-08-07T11:49:07;22.10;50.50
48043;DHT22;33988;47.992;8.820;2023-08-07T11:51:41;22.20;50.20
48043;DHT22;33988;47.992;8.820;2023-08-07T11:54:13;22.20;50.10
48043;DHT22;33988;47.992;8.820;2023-08-07T11:56:46;22.30;50.10
48043;DHT22;33988;47.992;8.820;2023-08-07T11:59:16;22.40;49.80
48043;DHT22;33988;47.992;8.820;2023-08-07T12:01:45;22.50;49.70
48043;DHT22;33988;47.992;8.820;2023-08-07T12:04:17;22.60;49.50
48043;DHT22;33988;47.992;8.820;2023-08-07T12:06:54;22.60;49.20
48043;DHT22;33988;47.992;8.820;2023-08-07T12:09:25;22.60;49.40
48043;DHT22;33988;47.992;8.820;2023-08-07T12:11:58;22.60;49.40
48043;DHT22;33988;47.992;8.820;2023-08-07T12:14:35;22.60;49.30
48043;DHT22;33988;47.992;8.820;2023-08-07T12:17:02;22.60;49.00
48043;DHT22;33988;47.992;8.820;2023-08-07T12:19:41;22.50;49.10
48043;DHT22;33988;47.992;8.820;2023-08-07T12:22:13;22.50;49.40
48043;DHT22;33988;47.992;8.820;2023-08-07T12:24:45;22.40;49.60
48043;DHT22;33988;47.992;8.820;2023-08-07T12:27:12;22.40;50.10
48043;DHT22;33988;47.992;8.820;2023-08-07T12:29:39;22.40;50.40
48043;DHT22;33988;47.992;8.820;2023-08-07T12:32:08;22.30;50.80
48043;DHT22;33988;47.992;8.820;2023-08-07T12:34:36;22.30;51.00
48043;DHT22;33988;47.992;8.820;2023-08-07T12:37:29;22.30;51.30
48043;DHT22;33988;47.992;8.820;2023-08-07T12:40:01;22.30;51.60
48043;DHT22;33988;47.992;8.820;2023-08-07T12:42:33;22.40;51.90
48043;DHT22;33988;47.992;8.820;2023-08-07T12:45:03;22.40;51.90
48043;DHT22;33988;47.992;8.820;2023-08-07T12:47:30;22.50;51.80
48043;DHT22;33988;47.992;8.820;2023-08-07T12:50:01;22.50;51.60
48043;DHT22;33988;47.992;8.820;2023-08-07T12:52:28;22.50;51.20
48043;DHT22;33988;47.992;8.820;2023-08-07T12:54:55;22.50;51.00
48043;DHT22;33988;47.992;8.820;2023-08-07T12:57:22;22.50;50.80
48043;DHT22;33988;47.992;8.820;2023-08-07T12:59:55;22.50;50.90
48043;DHT22;33988;47.992;8.820;2023-08-07T13:02:24;22.50;51.00
48043;DHT22;33988;47.992;8.820;2023-08-07T13:04:54;22.50;51.10
48043;DHT22;33988;47.992;8.820;2023-08-07T13:07:28;22.60;51.10
48043;DHT22;33988;47.992;8.820;2023-08-07T13:09:57;22.60;51.10
48043;DHT22;33988;47.992;8.820;2023-08-07T13:12:24;22.60;51.30
48043;DHT22;33988;47.992;8.820;2023-08-07T13:14:51;22.60;51.40
48043;DHT22;33988;47.992;8.820;2023-08-07T13:17:21;22.60;51.20
48043;DHT22;33988;47.992;8.820;2023-08-07T13:19:50;22.70;50.80
48043;DHT22;33988;47.992;8.820;2023-08-07T13:22:19;22.70;50.80
48043;DHT22;33988;47.992;8.820;2023-08-07T13:24:46;22.70;50.70
48043;DHT22;33988;47.992;8.820;2023-08-07T13:27:13;22.80;50.60
48043;DHT22;33988;47.992;8.820;2023-08-07T13:29:40;22.80;50.10
48043;DHT22;33988;47.992;8.820;2023-08-07T13:32:07;22.80;49.80
48043;DHT22;33988;47.992;8.820;2023-08-07T13:34:38;22.80;49.50
48043;DHT22;33988;47.992;8.820;2023-08-07T13:37:07;22.80;49.40
48043;DHT22;33988;47.992;8.820;2023-08-07T13:39:36;22.80;49.40
48043;DHT22;33988;47.992;8.820;2023-08-07T13:42:03;22.80;49.40
48043;DHT22;33988;47.992;8.820;2023-08-07T13:44:31;22.80;49.20
48043;DHT22;33988;47.992;8.820;2023-08-07T13:47:00;22.80;49.50
48043;DHT22;33988;47.992;8.820;2023-08-07T13:49:32;22.80;49.80
48043;DHT22;33988;47.992;8.820;2023-08-07T13:52:01;22.90;49.60
48043;DHT22;33988;47.992;8.820;2023-08-07T13:54:28;22.90;49.40
48043;DHT22;33988;47.992;8.820;2023-08-07T13:56:55;23.00;49.60
48043;DHT22;33988;47.992;8.820;2023-08-07T13:59:22;23.00;49.40
48043;DHT22;33988;47.992;8.820;2023-08-07T14:01:49;23.00;49.00
48043;DHT22;33988;47.992;8.820;2023-08-07T14:04:16;23.10;48.90
48043;DHT22;33988;47.992;8.820;2023-08-07T14:06:50;23.10;48.50
48043;DHT22;33988;47.992;8.820;2023-08-07T14:09:17;23.20;48.30
48043;DHT22;33988;47.992;8.820;2023-08-07T14:11:50;23.20;48.30
48043;DHT22;33988;47.992;8.820;2023-08-07T14:14:17;23.20;48.20
48043;DHT22;33988;47.992;8.820;2023-08-07T14:16:44;23.20;47.70
48043;DHT22;33988;47.992;8.820;2023-08-07T14:19:14;23.20;47.50
48043;DHT22;33988;47.992;8.820;2023-08-07T14:21:41;23.20;47.20
48043;DHT22;33988;47.992;8.820;2023-08-07T14:24:10;23.20;47.00
48043;DHT22;33988;47.992;8.820;2023-08-07T14:26:39;23.20;47.30
48043;DHT22;33988;47.992;8.820;2023-08-07T14:29:06;23.10;47.30
48043;DHT22;33988;47.992;8.820;2023-08-07T14:31:35;23.20;47.40
48043;DHT22;33988;47.992;8.820;2023-08-07T14:34:02;23.10;47.40
48043;DHT22;33988;47.992;8.820;2023-08-07T14:36:29;23.10;47.10
48043;DHT22;33988;47.992;8.820;2023-08-07T14:38:56;23.10;47.00
48043;DHT22;33988;47.992;8.820;2023-08-07T14:41:25;23.10;47.00
48043;DHT22;33988;47.992;8.820;2023-08-07T14:43:54;23.10;47.00
48043;DHT22;33988;47.992;8.820;2023-08-07T14:46:21;23.20;46.90
48043;DHT22;33988;47.992;8.820;2023-08-07T14:48:50;23.20;46.90
48043;DHT22;33988;47.992;8.820;2023-08-07T14:51:17;23.10;46.80
48043;DHT22;33988;47.992;8.820;2023-08-07T14:53:44;23.20;46.80
48043;DHT22;33988;47.992;8.820;2023-08-07T14:56:11;23.20;46.50
48043;DHT22;33988;47.992;8.820;2023-08-07T14:58:38;23.20;46.40
48043;DHT22;33988;47.992;8.820;2023-08-07T15:01:04;23.20;46.40
48043;DHT22;33988;47.992;8.820;2023-08-07T15:03:32;23.20;46.50
48043;DHT22;33988;47.992;8.820;2023-08-07T15:05:58;23.20;46.40
48043;DHT22;33988;47.992;8.820;2023-08-07T15:08:25;23.20;46.40
48043;DHT22;33988;47.992;8.820;2023-08-07T15:10:53;23.20;46.50
48043;DHT22;33988;47.992;8.820;2023-08-07T15:13:20;23.20;46.40
48043;DHT22;33988;47.992;8.820;2023-08-07T15:15:49;23.20;46.60
48043;DHT22;33988;47.992;8.820;2023-08-07T15:18:18;23.20;46.60
48043;DHT22;33988;47.992;8.820;2023-08-07T15:20:47;23.20;46.50
48043;DHT22;33988;47.992;8.820;2023-08-07T15:23:15;23.20;46.40
48043;DHT22;33988;47.992;8.820;2023-08-07T15:25:44;23.20;46.30
48043;DHT22;33988;47.992;8.820;2023-08-07T15:28:11;23.20;46.30
48043;DHT22;33988;47.992;8.820;2023-08-07T15:30:38;23.20;46.30
48043;DHT22;33988;47.992;8.820;2023-08-07T15:33:07;23.20;46.10
48043;DHT22;33988;47.992;8.820;2023-08-07T15:35:34;23.20;46.20
48043;DHT22;33988;47.992;8.820;2023-08-07T15:38:01;23.20;46.20
48043;DHT22;33988;47.992;8.820;2023-08-07T15:40:28;23.10;46.00
48043;DHT22;33988;47.992;8.820;2023-08-07T15:42:58;23.10;45.90
48043;DHT22;33988;47.992;8.820;2023-08-07T15:45:25;23.10;46.00
48043;DHT22;33988;47.992;8.820;2023-08-07T15:47:52;23.10;46.20
48043;DHT22;33988;47.992;8.820;2023-08-07T15:50:19;23.10;46.40
48043;DHT22;33988;47.992;8.820;2023-08-07T15:52:46;23.10;46.50
48043;DHT22;33988;47.992;8.820;2023-08-07T15:55:13;23.10;46.50
48043;DHT22;33988;47.992;8.820;2023-08-07T15:57:43;23.10;46.50